KIRS/IRS METAR and TAF weather

Enter ICAO airport designator
Station Type Date Time Source
KIRS METAR 2022/12/04 12:15 UTC NOAA

KIRS 041215Z AUTO 22006KT 10SM CLR M08/M10 A3025 RMK AO2 T10851099


Station Type Date Time Source
KIRS Decoded METAR 2022/12/04 12:15 UTC NOAA

Sturgis, Kirsch Municipal Airport, MI, United States (KIRS) 41-48-46N 085-26-21W
Dec 04, 2022 - 07:15 AM EST / 2022.12.04 1215 UTC
Wind: from the SW (220 degrees) at 7 MPH (6 KT):0
Visibility: 10 mile(s):0
Sky conditions: clear
Temperature: 16.7 F (-8.5 C)
Windchill: 6 F (-14 C):1
Dew Point: 14.2 F (-9.9 C)
Relative Humidity: 89%
Pressure (altimeter): 30.25 in. Hg (1024 hPa)
ob: KIRS 041215Z AUTO 22006KT 10SM CLR M08/M10 A3025 RMK AO2 T10851099
cycle: 12

Station Type Date Time Source
KIRS TAF UTC NOAA

Error!

Example: see airport list